Time;durP1;ratioP1;P1;durP2;ratioP2;P2;SDS_P1;SDS_P2;PMS_P1;PMS_P2;Temp;Humidity;BMP_temperature;BMP_pressure;BME280_temperature;BME280_humidity;BME280_pressure;Samples;Min_cycle;Max_cycle;Signal;HPM_P1;HPM_P2
2024/02/13 00:00:26;;;;;;;;;19.25;17.00;;;;;9.06;66.41;100104.87;146606;572;47016;-71
2024/02/13 00:03:30;;;;;;;;;21.00;17.75;;;;;9.13;65.82;100105.25;146611;594;46020;-73
2024/02/13 00:06:23;;;;;;;;;18.00;17.00;;;;;9.13;65.60;100109.56;146606;615;46016;-68
2024/02/13 00:09:20;;;;;;;;;17.25;15.25;;;;;9.16;65.68;100108.00;146607;605;47020;-72
2024/02/13 00:12:39;;;;;;;;;15.50;13.25;;;;;9.21;65.86;100108.19;146609;633;46016;-73
2024/02/13 00:15:40;;;;;;;;;13.75;13.25;;;;;9.20;65.35;100096.97;146611;573;46010;-74
2024/02/13 00:18:49;;;;;;;;;11.25;9.75;;;;;9.21;64.47;100096.12;146607;606;46016;-74
2024/02/13 00:22:06;;;;;;;;;11.25;11.25;;;;;9.16;65.01;100095.06;146620;591;45030;-72
2024/02/13 00:25:03;;;;;;;;;10.50;9.25;;;;;8.89;65.19;100078.25;146605;641;46012;-74
2024/02/13 00:28:05;;;;;;;;;13.00;9.50;;;;;9.07;66.23;100092.03;146607;620;45020;-73
2024/02/13 00:31:02;;;;;;;;;9.25;8.00;;;;;7.25;66.03;99789.72;146611;667;47012;-74
2024/02/13 00:34:12;;;;;;;;;10.50;9.50;;;;;8.93;65.81;100087.91;146614;600;47020;-70
2024/02/13 00:37:13;;;;;;;;;9.00;8.50;;;;;8.92;66.59;100099.06;146612;605;46028;-69
2024/02/13 00:40:23;;;;;;;;;14.50;13.75;;;;;8.97;65.52;100092.41;146617;636;46010;-68
2024/02/13 00:43:27;;;;;;;;;10.00;9.75;;;;;7.15;66.05;99777.19;146605;694;46016;-69
2024/02/13 00:46:26;;;;;;;;;10.00;8.75;;;;;8.99;66.21;100090.78;146608;595;47010;-68
2024/02/13 00:49:30;;;;;;;;;8.75;8.50;;;;;8.98;65.52;100079.56;146610;573;46016;-68
2024/02/13 00:52:28;;;;;;;;;12.00;10.75;;;;;8.94;66.27;100082.81;146617;613;46021;-68
2024/02/13 00:55:34;;;;;;;;;14.00;13.00;;;;;8.90;66.47;100083.47;146607;592;46016;-72
2024/02/13 00:58:31;;;;;;;;;20.25;19.00;;;;;8.89;65.65;100080.81;146602;581;47026;-72
2024/02/13 01:01:26;;;;;;;;;26.50;26.50;;;;;8.73;66.44;100059.41;146601;615;47012;-73
2024/02/13 01:04:18;;;;;;;;;14.50;12.25;;;;;8.82;65.76;100082.22;146604;763;46010;-71
2024/02/13 01:07:24;;;;;;;;;22.25;19.25;;;;;8.79;65.38;100074.34;146606;659;46017;-71
2024/02/13 01:10:31;;;;;;;;;18.50;13.75;;;;;8.77;65.82;100082.00;146610;606;46020;-72
2024/02/13 01:13:33;;;;;;;;;17.75;15.75;;;;;8.68;65.83;100075.50;146605;617;47014;-74
2024/02/13 01:16:41;;;;;;;;;16.50;16.50;;;;;8.60;66.72;100072.56;146608;570;46021;-74
2024/02/13 01:19:33;;;;;;;;;20.50;15.75;;;;;8.58;67.15;100076.75;146606;600;46012;-73
2024/02/13 01:22:34;;;;;;;;;22.50;17.25;;;;;8.60;67.29;100079.41;146608;634;46021;-74
2024/02/13 01:25:37;;;;;;;;;19.75;18.50;;;;;8.58;66.96;100079.34;146604;613;46037;-76
2024/02/13 01:28:48;;;;;;;;;21.75;18.75;;;;;8.45;65.99;100053.72;146603;629;46020;-76
2024/02/13 01:31:53;;;;;;;;;;;;;;;;;;;;;
2024/02/13 01:34:47;;;;;;;;;21.50;18.25;;;;;8.60;66.99;100079.41;146609;607;47012;-74
2024/02/13 01:37:53;;;;;;;;;21.00;18.50;;;;;8.56;65.85;100075.78;146604;606;46017;-71
2024/02/13 01:40:48;;;;;;;;;25.75;21.00;;;;;8.53;67.04;100084.28;146609;569;46020;-74
2024/02/13 01:43:54;;;;;;;;;21.25;18.25;;;;;8.51;67.17;100093.66;146605;572;47012;-76
2024/02/13 01:46:52;;;;;;;;;19.25;16.75;;;;;8.48;68.23;100088.34;146610;587;46020;-76
2024/02/13 01:49:53;;;;;;;;;23.25;19.75;;;;;8.45;68.31;100101.13;146606;581;46016;-74
2024/02/13 01:53:01;;;;;;;;;18.50;16.75;;;;;8.43;67.69;100100.12;146608;575;46020;-73
2024/02/13 01:56:14;;;;;;;;;;;;;;;;;;;;;
2024/02/13 01:59:14;;;;;;;;;16.25;14.50;;;;;8.42;68.84;100110.41;146602;599;46021;-74
2024/02/13 02:02:32;;;;;;;;;18.00;15.25;;;;;8.44;68.83;100108.78;146605;638;47012;-73
2024/02/13 02:05:30;;;;;;;;;16.25;15.50;;;;;8.48;69.16;100103.84;146609;577;46020;-74
2024/02/13 02:08:23;;;;;;;;;19.25;15.75;;;;;8.55;69.06;100110.19;146607;565;46025;-72
2024/02/13 02:11:30;;;;;;;;;17.25;16.50;;;;;5.50;68.48;99566.19;146607;662;46020;-72
2024/02/13 02:14:36;;;;;;;;;15.25;11.75;;;;;8.68;68.33;100140.12;146605;592;46016;-73
2024/02/13 02:18:21;;;;;;;;;12.50;10.75;;;;;4.80;66.22;99447.72;146606;586;47010;-74
2024/02/13 02:21:14;;;;;;;;;15.75;12.25;;;;;8.63;67.88;100115.72;146605;631;46012;-72
2024/02/13 02:24:28;;;;;;;;;13.00;10.00;;;;;4.12;67.37;99354.22;146607;569;47010;-73
2024/02/13 02:27:35;;;;;;;;;10.25;10.00;;;;;8.54;68.41;100122.25;146604;577;46012;-71
2024/02/13 02:30:39;;;;;;;;;14.75;10.00;;;;;8.50;68.21;100129.75;146604;616;46020;-68
2024/02/13 02:33:40;;;;;;;;;10.25;9.75;;;;;8.44;68.49;100130.34;146607;589;46016;-69
2024/02/13 02:36:36;;;;;;;;;10.00;9.75;;;;;8.37;68.43;100120.47;146616;570;47010;-69
2024/02/13 02:39:34;;;;;;;;;8.00;7.25;;;;;8.33;69.08;100124.59;146609;579;47016;-69
2024/02/13 02:42:27;;;;;;;;;7.00;7.00;;;;;8.24;69.08;100126.72;146614;679;46020;-70
2024/02/13 02:45:27;;;;;;;;;7.25;6.25;;;;;8.24;68.44;100124.13;146612;647;46016;-71
2024/02/13 02:48:35;;;;;;;;;5.00;4.50;;;;;8.32;69.18;100127.12;146616;654;46010;-71
2024/02/13 02:51:35;;;;;;;;;5.25;5.00;;;;;8.38;69.05;100126.50;146601;652;48914;-70
2024/02/13 02:54:33;;;;;;;;;8.00;5.75;;;;;8.37;68.28;100129.91;146616;683;46020;-71
2024/02/13 02:57:28;;;;;;;;;4.75;4.75;;;;;6.34;68.27;99783.34;146611;584;46016;-72
2024/02/13 03:00:27;;;;;;;;;7.75;6.25;;;;;8.30;68.48;100123.56;146601;570;47021;-71
2024/02/13 03:03:46;;;;;;;;;6.75;5.00;;;;;8.27;68.05;100129.44;146609;571;47016;-71
2024/02/13 03:06:40;;;;;;;;;8.25;4.75;;;;;8.22;68.96;100130.91;146611;593;47020;-71
2024/02/13 03:09:56;;;;;;;;;5.50;4.50;;;;;8.21;68.79;100133.41;146612;569;46912;-71
2024/02/13 03:12:56;;;;;;;;;6.25;5.00;;;;;8.16;69.76;100125.47;146614;654;46020;-70
2024/02/13 03:16:05;;;;;;;;;5.50;5.50;;;;;6.36;68.30;99828.97;146610;597;47012;-70
2024/02/13 03:19:06;;;;;;;;;6.00;4.00;;;;;8.12;68.45;100149.31;146614;566;46010;-70
2024/02/13 03:22:05;;;;;;;;;6.00;5.75;;;;;8.04;69.36;100137.72;146612;692;46017;-68
2024/02/13 03:25:06;;;;;;;;;6.50;6.50;;;;;8.03;69.84;100146.25;146614;605;47010;-68
2024/02/13 03:28:05;;;;;;;;;5.25;5.00;;;;;8.00;69.14;100148.69;146610;572;47013;-65
2024/02/13 03:31:05;;;;;;;;;7.50;6.75;;;;;7.99;69.81;100154.66;146603;632;46020;-70
2024/02/13 03:34:07;;;;;;;;;7.50;6.00;;;;;7.96;69.52;100147.66;146609;584;46012;-68
2024/02/13 03:37:17;;;;;;;;;7.75;5.50;;;;;7.92;70.15;100153.47;146616;614;46024;-68
2024/02/13 03:40:16;;;;;;;;;12.75;9.50;;;;;7.88;69.35;100156.66;146611;588;47016;-69
2024/02/13 03:43:14;;;;;;;;;5.00;4.25;;;;;7.83;69.76;100150.41;146614;577;47011;-69
2024/02/13 03:46:35;;;;;;;;;25.75;22.50;;;;;7.33;68.79;100115.03;146611;569;46017;-68
2024/02/13 03:49:28;;;;;;;;;6.50;4.75;;;;;7.72;70.24;100152.37;146610;579;46020;-69
2024/02/13 03:52:36;;;;;;;;;90.00;82.67;;;;;3.21;68.65;99371.31;146614;594;46034;-69
2024/02/13 03:55:41;;;;;;;;;6.75;6.50;;;;;7.69;69.67;100165.13;146615;563;46010;-68
2024/02/13 03:58:53;;;;;;;;;5.00;4.75;;;;;7.68;70.53;100163.38;146612;563;47012;-69
2024/02/13 04:01:54;;;;;;;;;8.00;7.00;;;;;7.71;70.07;100157.50;146603;570;47012;-69
2024/02/13 04:05:07;;;;;;;;;7.00;6.25;;;;;3.48;68.38;99432.62;146612;580;47016;-68
2024/02/13 04:08:03;;;;;;;;;5.50;5.50;;;;;7.70;70.44;100166.03;146610;572;47020;-67
2024/02/13 04:10:56;;;;;;;;;7.50;6.50;;;;;7.67;69.85;100165.87;146610;580;46016;-69
2024/02/13 04:13:51;;;;;;;;;5.00;4.00;;;;;7.66;70.12;100158.91;146618;625;46020;-70
2024/02/13 04:16:46;;;;;;;;;5.50;3.50;;;;;7.55;69.68;100148.03;146612;609;46028;-68
2024/02/13 04:19:40;;;;;;;;;5.25;4.00;;;;;7.60;70.54;100165.56;146613;592;46021;-68
2024/02/13 04:22:36;;;;;;;;;8.25;7.00;;;;;7.54;70.23;100169.47;146611;586;46034;-68
2024/02/13 04:25:37;;;;;;;;;6.75;5.75;;;;;7.53;70.86;100170.28;146613;564;46010;-67
2024/02/13 04:28:33;;;;;;;;;7.75;6.00;;;;;7.54;69.93;100169.47;146611;574;47013;-68
2024/02/13 04:31:33;;;;;;;;;4.75;4.75;;;;;7.50;70.56;100168.41;146607;595;46010;-68
2024/02/13 04:34:41;;;;;;;;;4.00;4.00;;;;;7.46;69.28;100170.75;146610;625;46015;-70
2024/02/13 04:37:36;;;;;;;;;4.75;4.00;;;;;7.42;71.28;100177.44;146615;608;47010;-69
2024/02/13 04:40:37;;;;;;;;;5.25;5.25;;;;;7.39;70.46;100182.44;146607;580;47014;-68
2024/02/13 04:43:37;;;;;;;;;6.00;4.00;;;;;7.36;70.49;100182.25;146616;571;46020;-69
2024/02/13 04:46:34;;;;;;;;;4.50;4.00;;;;;7.38;72.02;100185.78;146614;620;45914;-70
2024/02/13 04:49:51;;;;;;;;;5.50;5.50;;;;;7.43;70.12;100188.66;146617;575;46021;-69
2024/02/13 04:52:51;;;;;;;;;6.25;5.25;;;;;7.47;70.61;100193.16;146612;716;46016;-69
2024/02/13 04:55:56;;;;;;;;;5.75;4.75;;;;;7.52;71.57;100192.63;146614;565;46020;-70
2024/02/13 04:58:55;;;;;;;;;6.00;6.00;;;;;7.57;73.01;100187.69;146610;585;46016;-67
2024/02/13 05:01:52;;;;;;;;;7.75;6.50;;;;;7.55;72.41;100191.91;146597;577;47010;-73
2024/02/13 05:08:06;;;;;;;;;8.00;8.00;;;;;7.60;70.97;100204.25;146615;725;46020;-69
2024/02/13 05:11:07;;;;;;;;;4.75;4.50;;;;;7.57;70.98;100209.25;146607;593;47012;-71
2024/02/13 05:14:10;;;;;;;;;6.25;5.00;;;;;7.56;71.24;100206.56;146614;570;46020;-71
2024/02/13 05:17:08;;;;;;;;;5.25;4.50;;;;;7.55;71.65;100203.09;146612;577;46012;-67
2024/02/13 05:20:13;;;;;;;;;5.25;5.25;;;;;7.53;71.00;100209.84;146616;573;46031;-67
2024/02/13 05:23:12;;;;;;;;;5.50;5.00;;;;;7.57;70.47;100209.25;146611;609;46016;-72
2024/02/13 05:26:13;;;;;;;;;6.50;6.00;;;;;7.59;70.56;100224.78;146615;583;46020;-72
2024/02/13 05:29:12;;;;;;;;;7.00;6.00;;;;;7.65;70.85;100230.28;146611;585;46016;-73
2024/02/13 05:32:17;;;;;;;;;15.00;15.00;;;;;7.72;69.87;100234.09;146604;612;45020;-72
2024/02/13 05:35:24;;;;;;;;;9.50;8.00;;;;;7.76;69.98;100236.94;146602;583;47012;-71
2024/02/13 05:38:26;;;;;;;;;6.50;6.25;;;;;7.68;70.85;100235.62;146613;597;47010;-74
2024/02/13 05:41:22;;;;;;;;;5.75;5.50;;;;;7.62;70.11;100249.06;146610;771;46024;-72
2024/02/13 05:44:17;;;;;;;;;8.75;8.75;;;;;7.58;71.13;100254.00;146613;564;47010;-75
2024/02/13 05:47:24;;;;;;;;;19.25;17.75;;;;;7.57;70.69;100250.53;146608;612;46014;-72
2024/02/13 05:50:25;;;;;;;;;7.00;7.00;;;;;7.63;70.78;100266.34;146606;585;46021;-72
2024/02/13 05:53:33;;;;;;;;;12.50;11.75;;;;;7.71;70.75;100263.28;146610;591;46032;-72
2024/02/13 05:56:29;;;;;;;;;13.00;7.25;;;;;7.78;70.95;100271.44;146611;633;46011;-74
2024/02/13 05:59:29;;;;;;;;;8.50;7.00;;;;;7.78;71.76;100275.72;146609;575;47012;-73
2024/02/13 06:02:34;;;;;;;;;8.75;7.75;;;;;7.85;71.48;100273.56;146603;580;46033;-73
2024/02/13 06:05:30;;;;;;;;;11.75;8.75;;;;;8.10;71.42;100277.50;146610;610;47012;-73
2024/02/13 06:08:28;;;;;;;;;9.00;9.00;;;;;8.50;71.92;100280.53;146612;629;47024;-72
2024/02/13 06:11:26;;;;;;;;;11.75;11.75;;;;;9.54;73.30;100289.16;146608;622;46014;-72
2024/02/13 06:14:25;;;;;;;;;13.00;12.75;;;;;10.85;69.09;100289.13;146606;677;47010;-73
2024/02/13 06:17:32;;;;;;;;;11.00;9.75;;;;;12.07;63.06;100293.25;146602;583;47015;-68
2024/02/13 06:20:47;;;;;;;;;7.00;7.00;;;;;13.23;60.65;100291.31;146616;610;46020;-69
2024/02/13 06:23:45;;;;;;;;;9.25;6.00;;;;;14.12;55.33;100299.41;146613;651;46014;-70
2024/02/13 06:26:40;;;;;;;;;10.75;8.00;;;;;14.68;52.68;100297.59;146618;578;46011;-71
2024/02/13 06:29:32;;;;;;;;;9.75;9.75;;;;;15.25;55.51;100304.31;146611;610;46016;-70
2024/02/13 06:32:36;;;;;;;;;112.67;93.00;;;;;15.93;50.00;100299.91;146603;606;46020;-69
2024/02/13 06:35:36;;;;;;;;;22.25;18.25;;;;;16.41;49.85;100298.31;146610;614;46915;-68
2024/02/13 06:38:33;;;;;;;;;15.25;15.00;;;;;16.85;49.50;100308.81;146610;579;46020;-68
2024/02/13 06:41:26;;;;;;;;;11.50;9.00;;;;;15.94;48.30;100065.44;146601;601;46013;-68
2024/02/13 06:44:22;;;;;;;;;13.00;11.00;;;;;17.75;47.73;100309.50;146614;574;46020;-68
2024/02/13 06:47:17;;;;;;;;;13.00;12.00;;;;;18.05;47.29;100321.34;146602;603;47016;-67
2024/02/13 06:50:17;;;;;;;;;14.50;12.75;;;;;18.36;46.19;100330.53;146607;603;47012;-69
2024/02/13 06:53:19;;;;;;;;;15.00;14.00;;;;;18.53;46.03;100333.34;146604;577;46016;-69
2024/02/13 06:56:17;;;;;;;;;16.75;16.25;;;;;18.69;43.51;100337.94;146601;578;48021;-68
2024/02/13 06:59:19;;;;;;;;;17.25;12.50;;;;;18.61;43.83;100337.84;146599;580;47014;-68
2024/02/13 07:02:20;;;;;;;;;18.50;15.50;;;;;18.50;44.22;100333.31;146601;579;48010;-72
2024/02/13 07:05:14;;;;;;;;;14.75;14.00;;;;;18.36;44.21;100336.66;146604;565;46914;-69
2024/02/13 07:08:13;;;;;;;;;15.25;13.25;;;;;18.14;43.94;100337.22;146605;587;47010;-69
2024/02/13 07:11:22;;;;;;;;;16.50;14.75;;;;;17.75;45.52;100341.84;146604;619;47012;-70
2024/02/13 07:14:20;;;;;;;;;16.25;15.75;;;;;17.46;45.48;100344.00;146610;667;46020;-69
2024/02/13 07:17:27;;;;;;;;;17.75;16.00;;;;;17.23;47.37;100342.72;146601;648;47014;-72
2024/02/13 07:20:22;;;;;;;;;17.75;16.25;;;;;17.06;47.27;100334.53;146607;581;47010;-68
2024/02/13 07:23:18;;;;;;;;;16.75;13.00;;;;;16.76;47.68;100329.56;146605;600;47012;-68
2024/02/13 07:26:21;;;;;;;;;17.25;17.00;;;;;16.36;48.50;100329.63;146610;581;46021;-73
2024/02/13 07:29:16;;;;;;;;;13.00;11.75;;;;;16.13;49.36;100334.34;146605;604;46032;-69
2024/02/13 07:32:22;;;;;;;;;11.00;10.00;;;;;15.91;49.64;100338.19;146604;624;46021;-69
2024/02/13 07:35:26;;;;;;;;;11.50;9.00;;;;;15.69;50.48;100330.69;146603;595;47012;-72
2024/02/13 07:38:18;;;;;;;;;12.50;9.25;;;;;15.52;51.47;100343.31;146613;581;47010;-69
2024/02/13 07:41:11;;;;;;;;;13.50;10.50;;;;;15.42;51.03;100343.91;146610;613;46017;-71
2024/02/13 07:44:05;;;;;;;;;10.75;9.25;;;;;15.37;52.11;100353.38;146610;586;46020;-70
2024/02/13 07:47:08;;;;;;;;;12.00;11.75;;;;;15.37;51.75;100354.25;146610;664;46915;-70
2024/02/13 07:50:07;;;;;;;;;14.25;11.25;;;;;15.39;51.83;100349.97;146610;612;46020;-69
2024/02/13 07:53:22;;;;;;;;;52.25;40.50;;;;;15.51;52.05;100362.44;146604;605;47016;-69
2024/02/13 07:56:20;;;;;;;;;19.75;16.50;;;;;15.67;50.34;100351.56;146609;610;47034;-69
2024/02/13 07:59:15;;;;;;;;;18.00;16.00;;;;;15.68;51.18;100345.50;146601;554;47012;-69
2024/02/13 08:02:12;;;;;;;;;11.50;11.50;;;;;15.77;51.29;100354.41;146604;619;46010;-69
2024/02/13 08:05:26;;;;;;;;;12.25;10.50;;;;;15.93;51.67;100354.81;146605;564;46016;-70
2024/02/13 08:08:20;;;;;;;;;11.25;9.00;;;;;16.07;51.15;100352.50;146611;639;46021;-68
2024/02/13 08:11:32;;;;;;;;;11.25;11.00;;;;;16.21;50.23;100350.22;146608;573;48012;-70
2024/02/13 08:14:37;;;;;;;;;13.50;11.25;;;;;16.26;50.97;100355.53;146607;600;46020;-70
2024/02/13 08:17:35;;;;;;;;;10.25;8.00;;;;;16.30;50.10;100354.78;146604;618;47017;-69
2024/02/13 08:20:32;;;;;;;;;10.00;8.25;;;;;16.22;50.19;100354.59;146621;603;46010;-70
2024/02/13 08:23:33;;;;;;;;;10.00;9.25;;;;;16.19;50.76;100356.25;146609;607;47013;-69
2024/02/13 08:26:31;;;;;;;;;10.00;9.75;;;;;16.24;50.23;100352.03;146616;635;47020;-69
2024/02/13 08:29:30;;;;;;;;;11.25;9.00;;;;;16.34;51.13;100362.72;146609;617;47015;-69
2024/02/13 08:32:26;;;;;;;;;10.25;8.00;;;;;16.44;50.40;100366.41;146603;619;46021;-70
2024/02/13 08:35:49;;;;;;;;;9.75;7.75;;;;;13.27;50.93;99815.91;146609;565;46016;-69
2024/02/13 08:38:53;;;;;;;;;9.25;7.75;;;;;16.51;49.94;100363.09;146616;591;46022;-70
2024/02/13 08:41:57;;;;;;;;;8.75;8.25;;;;;16.63;49.64;100360.75;146610;625;47016;-69
2024/02/13 08:44:59;;;;;;;;;8.50;8.50;;;;;16.71;49.16;100357.38;146634;643;45011;-67
2024/02/13 08:47:55;;;;;;;;;5.00;5.00;;;;;16.80;50.35;100366.34;146634;613;46012;-69
2024/02/13 08:50:56;;;;;;;;;8.00;8.00;;;;;17.01;49.28;100363.28;146636;576;45020;-69
2024/02/13 08:53:56;;;;;;;;;8.00;6.00;;;;;17.16;48.21;100362.66;146634;617;45017;-68
2024/02/13 08:57:00;;;;;;;;;8.75;8.25;;;;;17.29;47.85;100372.53;146635;650;45012;-69
2024/02/13 08:59:56;;;;;;;;;9.75;7.00;;;;;17.32;47.72;100366.47;146632;579;46012;-68
2024/02/13 09:02:59;;;;;;;;;10.50;9.00;;;;;17.32;46.96;100369.09;146630;637;45020;-68
2024/02/13 09:06:05;;;;;;;;;7.00;6.00;;;;;17.32;47.86;100363.84;146625;563;46016;-67
2024/02/13 09:08:59;;;;;;;;;9.75;8.75;;;;;17.40;49.79;100370.09;146634;608;45011;-69
2024/02/13 09:11:55;;;;;;;;;8.50;7.50;;;;;17.49;47.94;100364.12;146632;597;45914;-68
2024/02/13 09:15:03;;;;;;;;;5.50;5.00;;;;;17.57;47.66;100364.25;146638;651;45020;-69
2024/02/13 09:18:02;;;;;;;;;8.00;8.00;;;;;17.63;47.83;100361.72;146633;577;46012;-70
2024/02/13 09:20:58;;;;;;;;;14.25;11.00;;;;;17.68;47.62;100370.56;146638;579;45020;-68
2024/02/13 09:23:51;;;;;;;;;7.75;6.50;;;;;16.34;45.51;100113.28;146630;575;46013;-68
2024/02/13 09:26:44;;;;;;;;;8.75;6.75;;;;;17.75;46.90;100357.56;146637;665;45020;-70
2024/02/13 09:29:38;;;;;;;;;8.00;8.00;;;;;17.78;46.31;100355.03;146633;627;45016;-67
2024/02/13 09:32:35;;;;;;;;;11.50;8.75;;;;;17.79;47.01;100358.56;146628;584;47010;-67
2024/02/13 09:35:29;;;;;;;;;10.75;10.75;;;;;17.85;47.46;100361.28;146628;584;46014;-67
2024/02/13 09:38:27;;;;;;;;;10.75;7.75;;;;;17.88;47.08;100348.22;146633;664;45021;-69
2024/02/13 09:41:26;;;;;;;;;7.50;6.75;;;;;17.99;46.36;100353.62;146630;723;46016;-67
2024/02/13 09:44:36;;;;;;;;;6.50;5.25;;;;;18.06;46.07;100351.97;146612;585;47011;-67
2024/02/13 09:47:36;;;;;;;;;4.25;2.25;;;;;18.10;46.03;100348.50;146610;577;46017;-69
2024/02/13 09:50:42;;;;;;;;;3.75;3.75;;;;;18.08;45.23;100347.62;146615;628;46020;-69
2024/02/13 09:53:36;;;;;;;;;5.00;3.25;;;;;18.13;44.88;100346.84;146611;564;46013;-69
2024/02/13 09:56:49;;;;;;;;;4.00;3.00;;;;;18.24;43.89;100352.22;146615;647;47010;-69
2024/02/13 09:59:47;;;;;;;;;3.25;3.25;;;;;18.37;46.13;100350.66;146610;645;47017;-67
2024/02/13 10:02:50;;;;;;;;;2.00;2.00;;;;;18.48;43.72;100349.06;146603;569;46034;-69
2024/02/13 10:05:45;;;;;;;;;5.25;3.50;;;;;18.66;45.00;100344.06;146611;647;47012;-68
2024/02/13 10:08:41;;;;;;;;;3.00;3.00;;;;;18.92;44.42;100346.13;146614;567;47010;-69
2024/02/13 10:11:38;;;;;;;;;6.25;5.00;;;;;19.18;44.51;100340.25;146609;572;46016;-69
2024/02/13 10:14:48;;;;;;;;;5.00;3.00;;;;;19.34;43.75;100343.03;146615;598;47010;-68
2024/02/13 10:17:45;;;;;;;;;5.00;4.00;;;;;19.39;43.25;100343.97;146612;599;47027;-69
2024/02/13 10:20:50;;;;;;;;;6.00;5.25;;;;;19.50;43.70;100346.72;146613;569;47012;-68
2024/02/13 10:23:44;;;;;;;;;6.25;5.50;;;;;19.55;42.29;100334.47;146613;564;46914;-68
2024/02/13 10:26:40;;;;;;;;;6.75;4.50;;;;;19.56;42.04;100336.25;146614;662;47012;-69
2024/02/13 10:29:51;;;;;;;;;5.00;4.00;;;;;19.65;46.27;100342.47;146607;633;46016;-70
2024/02/13 10:32:53;;;;;;;;;3.75;3.75;;;;;19.72;44.72;100321.50;146605;629;46030;-67
2024/02/13 10:35:52;;;;;;;;;6.00;5.00;;;;;19.90;42.93;100333.00;146613;651;46012;-68
2024/02/13 10:39:05;;;;;;;;;5.25;3.75;;;;;19.93;41.82;100325.16;146619;611;46021;-69
2024/02/13 10:42:20;;;;;;;;;6.50;5.50;;;;;18.16;44.35;100070.47;146610;662;47014;-70
2024/02/13 10:45:34;;;;;;;;;2.67;1.67;;;;;19.84;43.50;100332.13;146633;629;46012;-69
2024/02/13 10:49:30;;;;;;;;;4.00;4.00;;;;;19.92;44.15;100323.41;146630;569;47916;-70
2024/02/13 10:52:27;;;;;;;;;3.00;2.67;;;;;19.95;42.46;100313.75;146638;653;45021;-70
2024/02/13 10:55:26;;;;;;;;;4.25;4.25;;;;;19.94;43.05;100309.38;146634;620;45916;-70
2024/02/13 10:58:29;;;;;;;;;6.00;6.00;;;;;19.96;42.90;100309.38;146637;608;45010;-68
2024/02/13 11:01:29;;;;;;;;;8.75;7.00;;;;;19.95;44.19;100307.63;146633;572;45016;-69
2024/02/13 11:04:25;;;;;;;;;8.00;7.00;;;;;19.90;44.41;100309.34;146630;704;46010;-69
2024/02/13 11:07:21;;;;;;;;;10.75;10.50;;;;;19.83;45.30;100311.94;146631;608;45916;-68
2024/02/13 11:10:19;;;;;;;;;11.75;8.00;;;;;19.78;45.12;100311.03;146633;639;46010;-69
2024/02/13 11:13:18;;;;;;;;;5.25;5.25;;;;;19.77;44.69;100316.25;146633;574;45012;-70
2024/02/13 11:16:21;;;;;;;;;8.25;6.00;;;;;19.80;44.37;100306.66;146636;612;45010;-67
2024/02/13 11:19:15;;;;;;;;;6.00;6.00;;;;;19.77;43.15;100305.75;146630;591;46016;-69
2024/02/13 11:22:15;;;;;;;;;13.25;9.50;;;;;19.66;43.53;100303.06;146630;674;46011;-68
2024/02/13 11:25:14;;;;;;;;;6.50;5.00;;;;;19.56;42.67;100301.16;146631;600;46014;-70
2024/02/13 11:28:18;;;;;;;;;7.00;6.75;;;;;19.49;43.94;100297.59;146631;566;46020;-68
2024/02/13 11:31:29;;;;;;;;;10.00;8.75;;;;;19.44;45.95;100294.09;146632;613;45914;-67
2024/02/13 11:34:48;;;;;;;;;6.50;5.75;;;;;19.37;43.42;100298.37;146630;575;45020;-69
2024/02/13 11:37:48;;;;;;;;;5.25;5.00;;;;;19.42;44.08;100287.03;146631;571;45914;-66
2024/02/13 11:40:46;;;;;;;;;6.00;6.00;;;;;19.49;43.64;100289.72;146638;642;45010;-68
2024/02/13 11:43:42;;;;;;;;;6.50;5.75;;;;;19.58;44.79;100283.66;146616;716;47012;-67
2024/02/13 11:46:58;;;;;;;;;6.00;5.25;;;;;16.54;44.28;99731.53;146613;581;47020;-68
2024/02/13 11:49:56;;;;;;;;;6.00;4.75;;;;;19.76;42.90;100275.94;146610;625;46016;-69
2024/02/13 11:52:50;;;;;;;;;8.25;6.00;;;;;19.78;42.31;100279.47;146614;629;46021;-70
2024/02/13 11:55:47;;;;;;;;;7.75;7.75;;;;;19.73;42.48;100268.03;146609;698;47012;-69
2024/02/13 11:58:42;;;;;;;;;4.25;4.25;;;;;19.71;41.79;100267.13;146614;625;46034;-69
2024/02/13 12:01:44;;;;;;;;;4.50;2.00;;;;;19.70;42.95;100272.38;146611;565;46012;-72
2024/02/13 12:04:48;;;;;;;;;6.25;4.00;;;;;19.69;43.39;100270.59;146603;605;46020;-69
2024/02/13 12:08:03;;;;;;;;;6.25;6.00;;;;;16.54;43.72;99719.34;146609;628;46017;-70
2024/02/13 12:11:16;;;;;;;;;3.25;3.00;;;;;16.39;44.29;99675.56;146615;648;47021;-68
2024/02/13 12:14:13;;;;;;;;;5.50;5.50;;;;;19.78;43.89;100261.06;146612;666;46913;-69
2024/02/13 12:17:30;;;;;;;;;8.25;7.00;;;;;19.91;44.03;100247.97;146615;577;47010;-69
2024/02/13 12:20:42;;;;;;;;;8.25;6.00;;;;;16.81;44.28;99691.72;146610;576;46915;-68
2024/02/13 12:23:54;;;;;;;;;6.00;6.00;;;;;20.13;42.18;100248.97;146615;592;46020;-68
2024/02/13 12:26:55;;;;;;;;;9.00;5.75;;;;;20.12;42.66;100250.69;146609;563;46016;-67
2024/02/13 12:29:55;;;;;;;;;7.00;5.75;;;;;20.13;43.31;100248.97;146613;596;47010;-68
2024/02/13 12:32:51;;;;;;;;;4.00;4.00;;;;;20.21;42.80;100244.59;146612;563;46016;-67
2024/02/13 12:35:50;;;;;;;;;5.25;5.00;;;;;20.16;42.38;100239.31;146604;611;46021;-66
2024/02/13 12:38:46;;;;;;;;;6.75;6.00;;;;;20.12;42.65;100245.41;146610;572;46012;-67
2024/02/13 12:41:52;;;;;;;;;7.25;5.50;;;;;20.19;43.52;100247.22;146613;678;47020;-68
2024/02/13 12:44:49;;;;;;;;;13.25;10.75;;;;;20.23;43.36;100237.59;146633;637;45915;-66
2024/02/13 12:47:51;;;;;;;;;9.75;8.75;;;;;20.31;43.46;100235.84;146637;668;46010;-67
2024/02/13 12:51:02;;;;;;;;;;;;;;;;;;;;;
2024/02/13 12:54:04;;;;;;;;;5.50;4.50;;;;;20.49;41.69;100246.44;146635;641;46020;-67
2024/02/13 12:57:02;;;;;;;;;3.00;2.25;;;;;20.58;41.37;100250.91;146634;597;45912;-68
2024/02/13 13:00:14;;;;;;;;;3.75;2.50;;;;;20.58;41.61;100250.03;146639;570;44048;-68
2024/02/13 13:03:19;;;;;;;;;4.67;4.67;;;;;20.55;42.21;100253.53;146633;574;46016;-67
2024/02/13 13:06:55;;;;;;;;;5.50;4.25;;;;;17.45;44.76;99726.31;146625;628;45028;-71
2024/02/13 13:09:52;;;;;;;;;5.00;5.00;;;;;20.45;42.53;100256.97;146628;582;46018;-70
2024/02/13 13:12:54;;;;;;;;;4.50;4.50;;;;;19.00;44.03;99997.62;146634;564;46010;-69
2024/02/13 13:16:00;;;;;;;;;6.75;5.00;;;;;20.61;43.85;100250.91;146633;625;46016;-62
2024/02/13 13:18:52;;;;;;;;;4.67;4.67;;;;;20.67;41.50;100250.94;146635;586;46013;-66
2024/02/13 13:21:45;;;;;;;;;6.75;6.00;;;;;20.68;43.00;100238.62;146631;573;46915;-68
2024/02/13 13:24:46;;;;;;;;;3.00;2.00;;;;;20.69;41.47;100257.09;146635;564;47012;-68
2024/02/13 13:27:53;;;;;;;;;8.00;7.00;;;;;20.62;42.47;100252.66;146636;618;45017;-70
2024/02/13 13:31:13;;;;;;;;;5.67;4.33;;;;;20.61;42.71;100250.91;146634;578;47010;-69
2024/02/13 13:34:15;;;;;;;;;4.00;4.00;;;;;20.62;43.51;100250.03;146632;592;46012;-69
2024/02/13 13:37:19;;;;;;;;;6.00;4.50;;;;;20.53;41.43;100247.41;146628;574;46012;-69
2024/02/13 13:40:22;;;;;;;;;4.50;4.00;;;;;20.43;41.86;100243.78;146635;595;45024;-69
2024/02/13 13:43:18;;;;;;;;;5.33;1.33;;;;;20.27;42.70;100232.31;146625;585;46021;-69
2024/02/13 13:46:24;;;;;;;;;5.67;5.67;;;;;20.25;42.28;100252.53;146611;639;46016;-70
2024/02/13 13:49:17;;;;;;;;;4.33;4.00;;;;;20.19;42.47;100256.88;146616;571;47013;-68
2024/02/13 13:52:13;;;;;;;;;5.00;3.75;;;;;20.09;42.27;100242.78;146610;639;47012;-68
2024/02/13 13:55:10;;;;;;;;;5.00;4.00;;;;;20.12;41.97;100247.19;146615;576;46020;-68
2024/02/13 13:58:08;;;;;;;;;5.25;3.75;;;;;20.19;42.00;100243.72;146611;579;46021;-68
2024/02/13 14:01:23;;;;;;;;;6.33;4.33;;;;;20.44;42.76;100252.59;146617;578;47010;-70
2024/02/13 14:04:23;;;;;;;;;4.67;3.00;;;;;20.69;42.25;100243.91;146610;591;47012;-71
2024/02/13 14:07:29;;;;;;;;;4.00;4.00;;;;;20.96;42.44;100239.56;146605;635;47020;-69
2024/02/13 14:10:25;;;;;;;;;7.00;5.67;;;;;21.08;40.96;100242.19;146614;680;46016;-69